Terminal Aerodrome Forecast
Issued by NWS

Home | Current Version | Previous Version | Text Only | Print | Product List | Glossary On
Versions: 1 2 3 4 5 6 7 8 9 10 11 12 13 14 15 16 17 18 19 20 21 22 23 24 25 26
000
FTUS41 KBUF 240200 AAA
TAFIAG
TAF AMD
KIAG 240234Z 2403/2424 34006KT P6SM BKN040
     FM240800 01008KT P6SM SCT040
     FM241900 34008KT P6SM SKC=

USA.gov is the U.S. government's official web portal to all federal, state and local government web resources and services.